ADDS METAR Data INFO
IDs: Format: Raw Decoded Include TAF

Data at: 1847 UTC 17 Oct 2017

KBKN 171835Z AUTO 18018KT 10SM -DZ CLR 23/06 A3020 RMK AO2
KBKN 171815Z AUTO 19014G23KT 10SM -DZ CLR 22/05 A3021 RMK AO2
KBKN 171755Z AUTO 20014G24KT 10SM CLR 22/06 A3021 RMK AO2
KBKN 171735Z AUTO 19020G25KT 10SM CLR 21/06 A3022 RMK AO2
KBKN 171715Z AUTO 19019G25KT 10SM CLR 21/06 A3023 RMK AO2
KBKN 171655Z AUTO 18020KT 10SM -DZ CLR 20/06 A3024 RMK AO2
KBKN 171635Z AUTO 19018KT 10SM CLR 20/06 A3025 RMK AO2
KBKN 171615Z AUTO 19018G24KT 10SM CLR 19/06 A3025 RMK AO2
KBKN 171555Z AUTO 19017KT 10SM CLR 18/06 A3025 RMK AO2
KBKN 171535Z AUTO 17012KT 10SM CLR 16/07 A3026 RMK AO2
KBKN 171515Z AUTO 18013KT 10SM CLR 15/07 A3026 RMK AO2
KBKN 171455Z AUTO 18010KT 10SM CLR 14/07 A3026 RMK AO2
KBKN 171435Z AUTO 18011KT 10SM CLR 13/07 A3026 RMK AO2
KBKN 171415Z AUTO 17009KT 10SM CLR 12/07 A3026 RMK AO2
KBKN 171355Z AUTO 15007KT 9SM CLR 11/07 A3025 RMK AO2
KBKN 171335Z AUTO 15008KT 10SM CLR 10/06 A3025 RMK AO2
KBKN 171315Z AUTO 15007KT 10SM CLR 08/06 A3025 RMK AO2
KBKN 171255Z AUTO 00000KT 10SM CLR 08/06 A3025 RMK AO2
KBKN 171235Z AUTO 12005KT 10SM CLR 08/06 A3025 RMK AO2
KBKN 171215Z AUTO 12004KT 10SM CLR 08/06 A3025 RMK AO2
KBKN 171155Z AUTO 11004KT 10SM CLR 07/06 A3025 RMK AO2
KBKN 171135Z AUTO 00000KT 10SM CLR 08/06 A3026 RMK AO2
KBKN 171115Z AUTO 00000KT 10SM CLR 08/06 A3025 RMK AO2
KBKN 171055Z AUTO 12004KT 10SM CLR 08/06 A3025 RMK AO2
KBKN 171035Z AUTO 14005KT 10SM CLR 08/06 A3025 RMK AO2
KBKN 171015Z AUTO 00000KT 10SM CLR 08/06 A3025 RMK AO2
KBKN 170955Z AUTO 13005KT 10SM CLR 09/06 A3025 RMK AO2
KBKN 170935Z AUTO 13004KT 10SM CLR 09/06 A3025 RMK AO2
KBKN 170915Z AUTO 14004KT 10SM CLR 09/06 A3025 RMK AO2
KBKN 170855Z AUTO 16005KT 10SM CLR 09/06 A3025 RMK AO2
KBKN 170835Z AUTO 15005KT 10SM CLR 09/06 A3026 RMK AO2
KBKN 170815Z AUTO 15006KT 10SM CLR 10/06 A3026 RMK AO2
KBKN 170755Z AUTO 15004KT 10SM CLR 10/06 A3027 RMK AO2
KBKN 170735Z AUTO 00000KT 10SM CLR 09/06 A3027 RMK AO2
KBKN 170715Z AUTO 13004KT 10SM CLR 09/06 A3027 RMK AO2
KBKN 170655Z AUTO 13004KT 10SM CLR 09/06 A3027 RMK AO2
KBKN 170635Z AUTO 00000KT 10SM CLR 10/06 A3028 RMK AO2
KBKN 170615Z AUTO 00000KT 10SM CLR 10/07 A3027 RMK AO2
KBKN 170555Z AUTO 17005KT 10SM CLR 11/07 A3027 RMK AO2
KBKN 170535Z AUTO 15005KT 10SM CLR 10/07 A3028 RMK AO2 LTG DSNT N
KBKN 170515Z AUTO 15006KT 10SM CLR 11/07 A3028 RMK AO2
KBKN 170455Z AUTO 15008KT 10SM CLR 11/07 A3029 RMK AO2
KBKN 170435Z AUTO 15008KT 10SM CLR 12/07 A3029 RMK AO2
KBKN 170415Z AUTO 16007KT 10SM CLR 11/07 A3030 RMK AO2
KBKN 170355Z AUTO 17005KT 10SM CLR 11/07 A3031 RMK AO2
KBKN 170335Z AUTO 16005KT 10SM CLR 12/07 A3030 RMK AO2
KBKN 170315Z AUTO 15004KT 10SM CLR 12/07 A3031 RMK AO2
KBKN 170255Z AUTO 15006KT 10SM CLR 13/07 A3030 RMK AO2
KBKN 170235Z AUTO 15007KT 10SM CLR 13/07 A3030 RMK AO2
KBKN 170215Z AUTO 16007KT 10SM 14/07 A3029 RMK AO2
KBKN 170155Z AUTO 16007KT 10SM CLR 14/07 A3029 RMK AO2
KBKN 170135Z AUTO 16007KT 10SM CLR 14/07 A3030 RMK AO2
KBKN 170115Z AUTO 16006KT 10SM CLR 14/07 A3029 RMK AO2
KBKN 170055Z AUTO 16005KT 10SM CLR 15/07 A3029 RMK AO2
KBKN 170035Z AUTO 16006KT 10SM CLR 15/06 A3029 RMK AO2
KBKN 170015Z AUTO 15006KT 10SM CLR 16/06 A3029 RMK AO2
KBKN 162355Z AUTO 15006KT 10SM CLR 17/06 A3029 RMK AO2
KBKN 162335Z AUTO 15007KT 10SM CLR 18/05 A3029 RMK AO2
KBKN 162315Z AUTO 16008KT 10SM CLR 20/04 A3030 RMK AO2
KBKN 162255Z AUTO 17009KT 10SM CLR 20/04 A3030 RMK AO2
KBKN 162235Z AUTO 16011KT 10SM CLR 20/03 A3030 RMK AO2
KBKN 162215Z AUTO 16008KT 10SM CLR 21/03 A3031 RMK AO2
KBKN 162155Z AUTO 17009G15KT 10SM CLR 21/03 A3031 RMK AO2
KBKN 162135Z AUTO 14009KT 10SM CLR 21/03 A3031 RMK AO2
KBKN 162115Z AUTO 15010KT 10SM CLR 21/02 A3032 RMK AO2
KBKN 162055Z AUTO 18010KT 8SM CLR 21/03 A3033 RMK AO2
KBKN 162035Z AUTO 16008KT 8SM CLR 21/03 A3034 RMK AO2
KBKN 162015Z AUTO 15006G14KT 10SM CLR 20/03 A3034 RMK AO2
KBKN 161955Z AUTO 18011KT 10SM CLR 21/04 A3036 RMK AO2
KBKN 161935Z AUTO 21008KT 10SM CLR 20/03 A3037 RMK AO2
KBKN 161915Z AUTO 21009KT 10SM CLR 20/04 A3038 RMK AO2
KBKN 161855Z AUTO 20008KT 10SM CLR 20/03 A3039 RMK AO2
KBKN 161835Z AUTO 21008G13KT 10SM CLR 19/03 A3041 RMK AO2
KBKN 161815Z AUTO 19007G13KT 10SM CLR 19/03 A3042 RMK AO2
KBKN 161755Z AUTO 17009KT 10SM CLR 19/03 A3044 RMK AO2
KBKN 161735Z AUTO 16009KT 10SM CLR 18/04 A3045 RMK AO2
KBKN 161715Z AUTO 18010KT 10SM CLR 18/05 A3046 RMK AO2
KBKN 161655Z AUTO 20008KT 10SM CLR 17/04 A3046 RMK AO2 LTG DSNT N
KBKN 161635Z AUTO 18009KT 10SM CLR 17/04 A3047 RMK AO2
KBKN 161615Z AUTO 17009KT 10SM CLR 16/04 A3047 RMK AO2
KBKN 161555Z AUTO 19007KT 10SM CLR 15/05 A3047 RMK AO2 LTG DSNT N
KBKN 161535Z AUTO 20007KT 10SM CLR 15/05 A3047 RMK AO2
KBKN 161515Z AUTO 20005KT 10SM CLR 14/06 A3047 RMK AO2
KBKN 161455Z AUTO 00000KT 4SM HZ CLR 12/08 A3047 RMK AO2
KBKN 161435Z AUTO 00000KT 10SM CLR 11/07 A3047 RMK AO2
KBKN 161415Z AUTO 00000KT 10SM CLR 10/07 A3047 RMK AO2
KBKN 161355Z AUTO 00000KT 10SM CLR 08/06 A3047 RMK AO2
KBKN 161335Z AUTO 00000KT 8SM CLR 07/06 A3046 RMK AO2
KBKN 161315Z AUTO 00000KT 9SM CLR 06/06 A3046 RMK AO2
KBKN 161255Z AUTO 00000KT 7SM CLR 05/05 A3046 RMK AO2
KBKN 161235Z AUTO 00000KT 10SM CLR 05/05 A3046 RMK AO2
KBKN 161215Z AUTO 00000KT 1/4SM FG VV002 05/05 A3046 RMK AO2
KBKN 161155Z AUTO 00000KT 4SM BR CLR 05/05 A3046 RMK AO2
KBKN 161135Z AUTO 24003KT 2 1/2SM BR CLR 05/05 A3046 RMK AO2 LTG DSNT N
KBKN 161115Z AUTO 00000KT 3/4SM BR VV005 05/05 A3045 RMK AO2
KBKN 161055Z AUTO 00000KT 10SM CLR 05/05 A3045 RMK AO2
KBKN 161035Z AUTO 00000KT 10SM CLR 05/05 A3045 RMK AO2
KBKN 161015Z AUTO 00000KT 10SM CLR 06/05 A3045 RMK AO2
KBKN 160955Z AUTO 00000KT 10SM CLR 07/06 A3044 RMK AO2
KBKN 160935Z AUTO 29003KT 10SM CLR 06/06 A3044 RMK AO2
KBKN 160915Z AUTO 27006KT 10SM CLR 06/06 A3044 RMK AO2
KBKN 160855Z AUTO 27005KT 10SM CLR 07/06 A3044 RMK AO2
KBKN 160835Z AUTO 26005KT 10SM CLR 06/06 A3045 RMK AO2
KBKN 160815Z AUTO 25004KT 10SM CLR 07/06 A3045 RMK AO2
KBKN 160755Z AUTO 25003KT 10SM CLR 07/06 A3045 RMK AO2 LTG DSNT N
KBKN 160735Z AUTO 00000KT 10SM CLR 07/06 A3045 RMK AO2
KBKN 160715Z AUTO 00000KT 10SM CLR 07/06 A3045 RMK AO2
KBKN 160655Z AUTO 00000KT 10SM CLR 07/06 A3044 RMK AO2 LTG DSNT N